Time;durP1;ratioP1;P1;durP2;ratioP2;P2;SDS_P1;SDS_P2;PMS_P1;PMS_P2;Temp;Humidity;BMP_temperature;BMP_pressure;BME280_temperature;BME280_humidity;BME280_pressure;Samples;Min_cycle;Max_cycle;Signal;HPM_P1;HPM_P2
2022/03/29 00:01:06;;;;;;;22.05;12.05;;;;;;;10.60;46.90;99413.00;5064224;28;20045;-74
2022/03/29 00:03:33;;;;;;;16.92;9.70;;;;;;;10.57;47.02;99410.63;5065707;28;20090;-74
2022/03/29 00:06:00;;;;;;;26.30;12.63;;;;;;;10.54;47.08;99403.81;5065071;28;20055;-75
2022/03/29 00:08:29;;;;;;;20.65;11.93;;;;;;;10.47;47.20;99395.56;5063537;28;20044;-75
2022/03/29 00:10:56;;;;;;;24.10;12.73;;;;;;;10.40;47.35;99397.06;5065032;28;20140;-74
2022/03/29 00:13:23;;;;;;;19.38;11.70;;;;;;;10.41;47.39;99400.56;5065006;28;20044;-74
2022/03/29 00:15:50;;;;;;;21.00;12.85;;;;;;;10.36;47.63;99402.75;5064852;28;20055;-73
2022/03/29 00:18:17;;;;;;;23.17;13.40;;;;;;;10.32;47.57;99400.38;5065642;28;20147;-74
2022/03/29 00:20:44;;;;;;;20.95;11.77;;;;;;;10.23;47.76;99401.13;5062289;28;20124;-74
2022/03/29 00:23:11;;;;;;;25.35;11.82;;;;;;;10.18;47.86;99399.84;5065214;28;20045;-74
2022/03/29 00:25:39;;;;;;;19.17;12.18;;;;;;;10.10;48.17;99398.69;5065337;28;20447;-75
2022/03/29 00:28:06;;;;;;;23.13;12.32;;;;;;;10.05;48.42;99400.88;5065298;28;20091;-74
2022/03/29 00:30:33;;;;;;;16.17;10.13;;;;;;;9.98;48.67;99396.25;5065119;28;20048;-74
2022/03/29 00:33:00;;;;;;;17.67;10.40;;;;;;;9.94;48.37;99398.31;5064841;28;20063;-73
2022/03/29 00:35:27;;;;;;;22.10;12.27;;;;;;;9.85;48.77;99388.50;5064804;28;20048;-74
2022/03/29 00:37:54;;;;;;;17.00;10.60;;;;;;;9.79;49.12;99395.13;5065057;28;20055;-74
2022/03/29 00:40:21;;;;;;;20.02;11.40;;;;;;;9.77;49.13;99386.50;5063703;28;20052;-74
2022/03/29 00:42:50;;;;;;;23.48;11.02;;;;;;;9.73;49.28;99385.91;5064334;28;20104;-75
2022/03/29 00:45:17;;;;;;;18.38;11.32;;;;;;;9.65;49.26;99371.69;5066395;28;20040;-75
2022/03/29 00:47:44;;;;;;;19.83;10.10;;;;;;;9.60;49.56;99373.88;5070064;28;20048;-74
2022/03/29 00:50:11;;;;;;;17.67;10.95;;;;;;;9.59;49.53;99365.13;5074886;28;20049;-75
2022/03/29 00:52:40;;;;;;;17.55;10.50;;;;;;;9.57;49.48;99369.69;5076322;28;20045;-75
2022/03/29 00:55:08;;;;;;;12.68;8.40;;;;;;;9.60;49.46;99363.31;5080131;28;20119;-75
2022/03/29 00:57:35;;;;;;;14.93;10.23;;;;;;;9.62;49.31;99361.41;5077185;28;20087;-73
2022/03/29 01:00:06;;;;;;;18.05;11.80;;;;;;;9.61;49.64;99357.94;5071045;28;20188;-74
2022/03/29 01:02:33;;;;;;;19.17;10.48;;;;;;;9.64;49.46;99354.22;5064663;28;20045;-74
2022/03/29 01:05:00;;;;;;;14.95;9.43;;;;;;;9.57;49.70;99348.59;5064976;28;20127;-74
2022/03/29 01:07:28;;;;;;;19.80;9.88;;;;;;;9.54;49.88;99354.13;5064609;28;20513;-76
2022/03/29 01:09:55;;;;;;;14.95;10.35;;;;;;;9.47;49.99;99352.94;5063388;28;20044;-73
2022/03/29 01:12:24;;;;;;;19.92;11.70;;;;;;;9.39;50.18;99348.31;5064797;28;20052;-74
2022/03/29 01:14:52;;;;;;;18.52;12.93;;;;;;;9.29;50.45;99342.97;5063975;28;20353;-74
2022/03/29 01:17:40;;;;;;;25.17;11.40;;;;;;;9.25;50.62;99346.81;5064836;28;20063;-74
2022/03/29 01:20:13;;;;;;;16.88;10.13;;;;;;;9.21;50.72;99332.22;5064175;28;20055;-72
2022/03/29 01:22:42;;;;;;;20.38;11.57;;;;;;;9.14;50.98;99325.78;5064976;28;20044;-72
2022/03/29 01:25:11;;;;;;;15.85;9.80;;;;;;;9.11;50.91;99323.38;5063987;28;20114;-73
2022/03/29 01:27:39;;;;;;;19.02;11.15;;;;;;;9.04;51.42;99314.31;5063952;28;20052;-73
2022/03/29 01:30:07;;;;;;;21.92;12.05;;;;;;;9.04;51.09;99319.56;5064647;28;20044;-74
2022/03/29 01:32:36;;;;;;;16.02;9.25;;;;;;;8.99;51.21;99315.53;5064195;28;20352;-74
2022/03/29 01:35:04;;;;;;;15.23;8.65;;;;;;;8.98;51.18;99313.00;5045630;28;20415;-73
2022/03/29 01:37:31;;;;;;;16.25;10.30;;;;;;;8.94;51.55;99301.88;5079689;28;20048;-76
2022/03/29 01:40:00;;;;;;;16.40;10.07;;;;;;;8.96;51.58;99294.69;5083691;28;20056;-74
2022/03/29 01:42:27;;;;;;;18.00;12.05;;;;;;;8.94;51.72;99304.53;5084303;28;20656;-72
2022/03/29 01:44:54;;;;;;;21.00;11.13;;;;;;;8.98;51.62;99311.22;5084572;28;20111;-73
2022/03/29 01:47:22;;;;;;;24.65;10.27;;;;;;;8.99;51.45;99312.88;5084594;28;20134;-74
2022/03/29 01:49:50;;;;;;;19.52;9.57;;;;;;;8.99;51.26;99306.78;5084739;28;20040;-74
2022/03/29 01:52:17;;;;;;;15.85;9.13;;;;;;;9.02;50.91;99322.34;5076349;28;20116;-75
2022/03/29 01:54:44;;;;;;;21.83;10.70;;;;;;;8.97;50.84;99319.25;5084312;28;20119;-74
2022/03/29 01:57:13;;;;;;;19.77;10.52;;;;;;;8.95;50.92;99327.28;5084853;28;20048;-74
2022/03/29 02:02:25;;;;;;;23.73;10.30;;;;;;;8.81;50.86;99322.28;5084655;28;20063;-75
2022/03/29 02:04:51;;;;;;;21.58;10.43;;;;;;;8.73;50.82;99307.09;5084541;28;20514;-71
2022/03/29 02:07:18;;;;;;;19.33;12.35;;;;;;;8.70;50.97;99302.06;5083010;28;20054;-72
2022/03/29 02:09:46;;;;;;;19.90;11.77;;;;;;;8.66;51.20;99311.19;5082342;28;20082;-74
2022/03/29 02:12:14;;;;;;;17.33;10.02;;;;;;;8.63;51.09;99313.22;5083898;28;20052;-75
2022/03/29 02:14:41;;;;;;;21.30;10.05;;;;;;;8.59;51.18;99316.09;5083636;28;20047;-74
2022/03/29 02:17:10;;;;;;;20.60;10.10;;;;;;;8.57;51.15;99311.88;5084142;28;20043;-75
2022/03/29 02:19:37;;;;;;;18.30;9.45;;;;;;;8.56;51.18;99312.88;5084087;28;20553;-73
2022/03/29 02:22:05;;;;;;;15.75;10.82;;;;;;;8.52;51.34;99314.91;5083304;28;20076;-73
2022/03/29 02:24:32;;;;;;;17.23;11.07;;;;;;;8.47;51.80;99322.31;5083680;28;20043;-75
2022/03/29 02:26:59;;;;;;;18.65;10.25;;;;;;;8.42;51.86;99320.03;5084171;28;20518;-72
2022/03/29 02:29:28;;;;;;;18.40;10.13;;;;;;;8.36;52.17;99309.16;5083245;28;20048;-73
2022/03/29 02:31:55;;;;;;;16.17;11.25;;;;;;;8.31;52.63;99301.59;5082909;28;20108;-72
2022/03/29 02:34:22;;;;;;;19.40;12.25;;;;;;;8.28;52.84;99301.00;5084210;28;20056;-73
2022/03/29 02:36:50;;;;;;;19.67;13.55;;;;;;;8.21;53.85;99298.00;5083751;28;20048;-73
2022/03/29 02:39:17;;;;;;;23.80;14.35;;;;;;;8.17;54.60;99299.19;5083264;28;20127;-73
2022/03/29 02:41:44;;;;;;;20.52;13.73;;;;;;;8.21;54.55;99306.75;5084871;28;20040;-73
2022/03/29 02:44:11;;;;;;;21.35;12.55;;;;;;;8.22;54.86;99299.69;5082999;28;20051;-74
2022/03/29 02:46:40;;;;;;;17.33;11.65;;;;;;;8.28;54.65;99306.25;5082859;28;20119;-73
2022/03/29 02:49:07;;;;;;;18.83;12.00;;;;;;;8.32;54.49;99299.78;5083470;28;20056;-73
2022/03/29 02:51:34;;;;;;;20.90;13.95;;;;;;;8.28;54.90;99301.00;5082588;28;20051;-73
2022/03/29 02:54:01;;;;;;;21.42;12.07;;;;;;;8.32;54.81;99290.13;5084317;28;20071;-73
2022/03/29 02:56:28;;;;;;;22.80;12.45;;;;;;;8.33;54.90;99289.16;5084918;28;20119;-75
2022/03/29 02:58:55;;;;;;;21.73;12.45;;;;;;;8.35;55.05;99289.88;5083753;28;20044;-73
2022/03/29 03:01:22;;;;;;;22.50;12.63;;;;;;;8.38;54.65;99291.44;5083392;28;20131;-75
2022/03/29 03:03:51;;;;;;;20.15;13.00;;;;;;;8.27;55.23;99294.09;5084108;28;20145;-74
2022/03/29 03:06:18;;;;;;;21.08;11.63;;;;;;;8.27;55.06;99287.00;5086865;28;20446;-75
2022/03/29 03:08:46;;;;;;;19.65;13.65;;;;;;;8.22;55.26;99286.53;5088414;28;20135;-76
2022/03/29 03:11:13;;;;;;;21.33;13.23;;;;;;;8.17;55.53;99302.66;5088852;28;20059;-75
2022/03/29 03:13:40;;;;;;;23.05;11.40;;;;;;;8.18;55.24;99299.09;5088001;28;20510;-75
2022/03/29 03:16:07;;;;;;;19.15;13.43;;;;;;;8.23;55.05;99291.69;5090347;28;20174;-76
2022/03/29 03:18:34;;;;;;;20.08;13.20;;;;;;;8.23;55.13;99293.47;5087922;28;20504;-75
2022/03/29 03:21:02;;;;;;;16.15;10.73;;;;;;;8.33;54.60;99298.84;5087991;28;20062;-74
2022/03/29 03:23:30;;;;;;;22.70;15.02;;;;;;;8.31;55.36;99304.22;5089216;28;20071;-75
2022/03/29 03:25:57;;;;;;;23.45;14.63;;;;;;;8.35;55.33;99304.81;5089784;28;20127;-77
2022/03/29 03:28:24;;;;;;;22.73;15.10;;;;;;;8.31;55.67;99295.50;5089571;28;20056;-75
2022/03/29 03:30:51;;;;;;;25.65;16.55;;;;;;;8.31;55.48;99292.88;5088418;28;20052;-73
2022/03/29 03:33:18;;;;;;;23.58;16.20;;;;;;;8.36;55.43;99294.19;5087553;28;20056;-73
2022/03/29 03:35:45;;;;;;;25.05;15.73;;;;;;;8.32;55.60;99303.28;5087311;28;20050;-74
2022/03/29 03:38:13;;;;;;;25.48;14.85;;;;;;;8.31;55.83;99309.50;5087676;28;20047;-74
2022/03/29 03:40:41;;;;;;;19.35;14.57;;;;;;;8.33;55.79;99317.25;5086672;28;20680;-74
2022/03/29 03:43:08;;;;;;;23.25;15.48;;;;;;;8.31;56.03;99319.19;5086481;28;20653;-74
2022/03/29 03:45:37;;;;;;;23.00;15.73;;;;;;;8.24;56.25;99327.53;5086622;28;20055;-74
2022/03/29 03:48:04;;;;;;;22.70;15.52;;;;;;;8.24;56.26;99343.31;5086804;28;20131;-74
2022/03/29 03:50:32;;;;;;;25.55;16.20;;;;;;;8.19;56.41;99334.13;5085968;28;20044;-75
2022/03/29 03:53:00;;;;;;;23.38;15.13;;;;;;;8.20;56.37;99330.53;5086452;28;20052;-74
2022/03/29 03:55:28;;;;;;;21.75;14.75;;;;;;;8.22;56.52;99334.72;5086357;28;20048;-74
2022/03/29 03:57:55;;;;;;;21.33;15.30;;;;;;;8.18;56.47;99327.19;5084964;28;20055;-73
2022/03/29 04:00:23;;;;;;;21.15;15.75;;;;;;;8.14;56.60;99323.97;5085784;28;20083;-72
2022/03/29 04:02:50;;;;;;;22.33;16.02;;;;;;;8.14;56.75;99329.22;5086031;28;20048;-73
2022/03/29 04:05:17;;;;;;;23.27;16.25;;;;;;;8.14;56.77;99320.47;5085593;28;20044;-77
2022/03/29 04:07:44;;;;;;;23.52;16.00;;;;;;;8.09;56.93;99326.09;5085715;28;20690;-73
2022/03/29 04:10:12;;;;;;;32.20;17.05;;;;;;;8.10;56.99;99329.56;5083211;28;20048;-72
2022/03/29 04:12:41;;;;;;;20.90;14.43;;;;;;;8.08;57.01;99316.53;5088150;28;20044;-78
2022/03/29 04:15:09;;;;;;;21.17;14.68;;;;;;;8.07;57.04;99314.88;5084513;28;20084;-73
2022/03/29 04:17:36;;;;;;;23.83;14.63;;;;;;;8.05;57.19;99311.53;5044315;28;20045;-74
2022/03/29 04:20:03;;;;;;;25.80;14.88;;;;;;;8.04;57.20;99304.59;5045122;28;20136;-73
2022/03/29 04:22:30;;;;;;;22.08;13.27;;;;;;;8.06;57.14;99302.66;5047974;28;20064;-72
2022/03/29 04:24:57;;;;;;;26.60;16.70;;;;;;;8.05;57.09;99301.00;5044384;28;20083;-74
2022/03/29 04:27:24;;;;;;;24.95;14.98;;;;;;;8.02;57.28;99306.50;5056858;28;20594;-73
2022/03/29 04:29:53;;;;;;;22.88;16.15;;;;;;;7.95;57.56;99298.25;5062351;28;20428;-78
2022/03/29 04:32:20;;;;;;;24.60;13.98;;;;;;;7.93;57.75;99297.53;5054757;28;20144;-72
2022/03/29 04:34:48;;;;;;;24.95;16.67;;;;;;;7.91;57.70;99295.97;5053007;28;20113;-71
2022/03/29 04:37:15;;;;;;;20.88;13.73;;;;;;;7.96;57.69;99289.41;5052792;28;20523;-72
2022/03/29 04:39:42;;;;;;;26.05;14.82;;;;;;;7.95;57.87;99290.34;5052733;28;20694;-73
2022/03/29 04:42:10;;;;;;;21.90;14.35;;;;;;;7.99;57.42;99294.41;5053698;28;20071;-72
2022/03/29 04:44:37;;;;;;;24.00;16.10;;;;;;;8.03;57.45;99289.75;5045339;28;20094;-74
2022/03/29 04:47:06;;;;;;;19.20;11.73;;;;;;;8.07;57.13;99283.31;5044869;28;20128;-70
2022/03/29 04:49:34;;;;;;;20.60;12.38;;;;;;;8.15;56.78;99290.59;5044587;28;20120;-74
2022/03/29 04:52:01;;;;;;;22.15;14.32;;;;;;;8.20;56.77;99289.28;5044385;28;20134;-74
2022/03/29 04:54:28;;;;;;;25.88;13.27;;;;;;;8.28;56.73;99291.31;5044069;28;20632;-78
2022/03/29 04:56:55;;;;;;;25.52;15.30;;;;;;;8.29;56.75;99285.09;5044920;28;20049;-72
2022/03/29 04:59:22;;;;;;;23.65;14.50;;;;;;;8.32;56.81;99291.91;5044745;28;20493;-73
2022/03/29 05:01:49;;;;;;;21.27;14.18;;;;;;;8.42;56.56;99285.00;5044993;28;20053;-73
2022/03/29 05:04:17;;;;;;;25.88;15.27;;;;;;;8.50;56.64;99282.59;5045765;28;20683;-75
2022/03/29 05:06:44;;;;;;;22.80;14.02;;;;;;;8.60;56.24;99280.91;5044488;28;20107;-74
2022/03/29 05:09:11;;;;;;;22.88;13.80;;;;;;;8.69;55.96;99273.22;5043056;28;20773;-77
2022/03/29 05:11:39;;;;;;;20.27;13.95;;;;;;;8.75;55.60;99270.97;5045514;28;20067;-74
2022/03/29 05:14:06;;;;;;;22.85;13.63;;;;;;;8.73;55.57;99272.03;5049136;28;20508;-75
2022/03/29 05:16:33;;;;;;;23.30;13.95;;;;;;;8.69;55.50;99283.75;5054732;28;20067;-75
2022/03/29 05:19:00;;;;;;;23.00;16.17;;;;;;;8.53;56.09;99286.78;5052279;28;20037;-73
2022/03/29 05:21:30;;;;;;;22.63;14.50;;;;;;;8.42;56.33;99287.63;5071252;28;20080;-76
2022/03/29 05:23:57;;;;;;;26.35;17.73;;;;;;;8.24;57.08;99289.88;5085798;28;20044;-73
2022/03/29 05:26:24;;;;;;;47.83;27.60;;;;;;;8.13;57.46;99290.72;5078585;28;20054;-75
2022/03/29 05:28:56;;;;;;;42.95;26.20;;;;;;;8.06;57.76;99293.94;5079690;28;20127;-76
2022/03/29 05:31:23;;;;;;;28.92;17.33;;;;;;;7.99;58.13;99296.22;5068627;28;20047;-80
2022/03/29 05:33:51;;;;;;;40.08;25.80;;;;;;;7.95;58.32;99300.88;5086990;28;20554;-76
2022/03/29 05:36:17;;;;;;;31.70;20.83;;;;;;;7.92;58.67;99300.25;5086061;28;20641;-76
2022/03/29 05:38:50;;;;;;;41.08;27.20;;;;;;;7.95;58.60;99303.50;5083441;28;20705;-77
2022/03/29 05:41:19;;;;;;;41.58;25.00;;;;;;;8.01;58.38;99303.03;5086735;28;20055;-74
2022/03/29 05:43:47;;;;;;;34.05;22.02;;;;;;;7.99;58.61;99304.09;5084927;28;20553;-73
2022/03/29 05:48:59;;;;;;;31.42;19.70;;;;;;;8.02;58.67;99317.00;5081266;28;20525;-77
2022/03/29 05:51:28;;;;;;;29.95;17.90;;;;;;;8.20;58.36;99320.03;5083744;28;20079;-73
2022/03/29 05:53:58;;;;;;;22.63;15.30;;;;;;;8.23;58.36;99315.34;5082380;28;20634;-72
2022/03/29 05:56:25;;;;;;;25.85;19.55;;;;;;;8.28;58.07;99317.63;5085625;28;20052;-74
2022/03/29 05:58:52;;;;;;;32.17;19.55;;;;;;;8.37;57.99;99318.69;5087031;28;20074;-75
2022/03/29 06:01:19;;;;;;;28.50;21.92;;;;;;;8.48;57.80;99324.00;5087944;28;20050;-80
2022/03/29 06:03:47;;;;;;;34.15;18.83;;;;;;;8.65;57.29;99327.09;5085744;28;20641;-77
2022/03/29 06:06:14;;;;;;;27.77;20.52;;;;;;;8.78;57.03;99325.16;5085658;28;20127;-75
2022/03/29 06:08:42;;;;;;;26.38;17.15;;;;;;;8.77;56.87;99318.22;5084407;28;20048;-77
2022/03/29 06:11:10;;;;;;;25.42;16.33;;;;;;;8.76;56.97;99325.25;5085112;28;20407;-73
2022/03/29 06:13:39;;;;;;;29.10;20.38;;;;;;;8.70;57.05;99312.59;5085371;28;20485;-74
2022/03/29 06:16:06;;;;;;;26.60;21.20;;;;;;;8.75;56.94;99326.25;5083203;28;20126;-73
2022/03/29 06:18:33;;;;;;;26.20;21.63;;;;;;;8.72;57.16;99320.38;5084013;28;20052;-73
2022/03/29 06:21:00;;;;;;;28.00;21.42;;;;;;;8.76;56.94;99329.69;5083299;28;20102;-72
2022/03/29 06:23:28;;;;;;;29.45;20.88;;;;;;;8.73;57.28;99333.44;5077434;28;20054;-75
2022/03/29 06:25:55;;;;;;;24.98;22.25;;;;;;;8.81;57.15;99330.19;5084304;28;20140;-75
2022/03/29 06:28:24;;;;;;;27.50;20.55;;;;;;;8.79;57.29;99326.84;5082751;28;20047;-76
2022/03/29 06:30:52;;;;;;;29.42;19.95;;;;;;;8.85;57.12;99322.88;5084017;28;20079;-76
2022/03/29 06:33:20;;;;;;;27.27;20.50;;;;;;;8.88;57.09;99328.72;5084664;28;20044;-75
2022/03/29 06:35:47;;;;;;;24.90;18.67;;;;;;;8.89;57.01;99327.75;5071278;28;20044;-74
2022/03/29 06:38:15;;;;;;;26.85;21.05;;;;;;;8.94;56.90;99337.94;5075239;28;20595;-72
2022/03/29 06:40:42;;;;;;;25.50;20.00;;;;;;;8.90;56.81;99334.69;5083611;28;20097;-72
2022/03/29 06:43:09;;;;;;;26.50;21.38;;;;;;;8.88;57.23;99331.34;5085601;28;20052;-72
2022/03/29 06:45:38;;;;;;;31.00;22.65;;;;;;;8.87;57.30;99329.66;5086338;28;20484;-75
2022/03/29 06:48:05;;;;;;;31.05;22.48;;;;;;;8.83;57.14;99332.69;5086666;28;20598;-73
2022/03/29 06:50:35;;;;;;;31.13;23.88;;;;;;;8.81;57.30;99335.44;5086875;28;20071;-74
2022/03/29 06:53:04;;;;;;;29.45;24.42;;;;;;;8.84;57.25;99339.63;5086382;28;20063;-74
2022/03/29 06:55:31;;;;;;;33.13;22.60;;;;;;;8.77;57.65;99341.91;5086949;28;20048;-74
2022/03/29 06:57:58;;;;;;;35.40;22.38;;;;;;;8.74;57.64;99350.06;5085330;28;20047;-73
2022/03/29 07:00:25;;;;;;;37.53;25.75;;;;;;;8.75;57.72;99342.03;5086098;28;20640;-71
2022/03/29 07:02:54;;;;;;;38.67;24.58;;;;;;;8.80;57.78;99339.03;5085318;28;20047;-71
2022/03/29 07:05:21;;;;;;;32.08;23.88;;;;;;;8.77;57.66;99344.56;5084161;28;20083;-70
2022/03/29 07:07:50;;;;;;;31.05;24.35;;;;;;;8.73;57.86;99351.00;5084660;28;20036;-71
2022/03/29 07:13:03;;;;;;;35.63;24.27;;;;;;;8.67;57.98;99344.44;5081660;28;20051;-73
2022/03/29 07:15:30;;;;;;;33.67;25.33;;;;;;;8.63;58.08;99347.44;5076120;28;20040;-73
2022/03/29 07:17:59;;;;;;;28.42;18.85;;;;;;;8.64;58.15;99354.38;5072740;28;20123;-72
2022/03/29 07:20:27;;;;;;;32.50;26.38;;;;;;;8.67;57.79;99343.59;5080238;28;20121;-69
2022/03/29 07:22:55;;;;;;;31.92;19.35;;;;;;;8.63;57.86;99355.34;5086485;28;20067;-71
2022/03/29 07:25:32;;;;;;;40.90;20.98;;;;;;;8.65;57.81;99356.06;5087957;28;20302;-72
2022/03/29 07:27:59;;;;;;;38.20;24.38;;;;;;;8.83;57.53;99349.31;5089133;28;20164;-73
2022/03/29 07:30:30;;;;;;;35.42;24.15;;;;;;;9.11;56.65;99353.22;5088648;28;20119;-71
2022/03/29 07:33:00;;;;;;;36.08;25.08;;;;;;;9.18;56.68;99343.84;5086238;28;20495;-73
2022/03/29 07:35:29;;;;;;;46.80;29.65;;;;;;;9.05;56.37;99350.22;5086251;28;20056;-71
2022/03/29 07:37:57;;;;;;;57.95;29.40;;;;;;;8.87;56.89;99352.53;5085605;28;20048;-73
2022/03/29 07:40:29;;;;;;;35.72;25.05;;;;;;;8.83;57.10;99354.59;5087257;28;20085;-75
2022/03/29 07:42:58;;;;;;;39.45;23.60;;;;;;;8.87;57.12;99353.38;5087149;28;20552;-77
2022/03/29 07:45:25;;;;;;;37.72;22.35;;;;;;;8.85;57.13;99352.66;5087714;28;20050;-78
2022/03/29 07:47:56;;;;;;;47.03;27.10;;;;;;;8.88;57.16;99357.69;5091827;28;20044;-71
2022/03/29 07:50:26;;;;;;;67.75;31.15;;;;;;;8.78;57.54;99347.03;5090431;28;20048;-71
2022/03/29 07:52:57;;;;;;;47.53;29.27;;;;;;;8.78;57.54;99362.00;5093299;28;20131;-71
2022/03/29 07:55:24;;;;;;;31.63;24.45;;;;;;;8.74;57.55;99352.69;5081598;28;20396;-72
2022/03/29 07:57:51;;;;;;;54.17;33.10;;;;;;;8.63;57.93;99352.72;5093014;28;20123;-70
2022/03/29 08:00:35;;;;;;;71.13;32.25;;;;;;;8.61;58.22;99355.47;5092447;28;20076;-71
2022/03/29 08:03:04;;;;;;;35.15;27.35;;;;;;;8.64;58.06;99354.38;5090052;28;20044;-71
2022/03/29 08:05:33;;;;;;;44.70;24.48;;;;;;;8.71;58.02;99355.56;5092109;28;20420;-69
2022/03/29 08:08:00;;;;;;;36.70;28.35;;;;;;;8.85;57.63;99352.66;5093851;28;20119;-69
2022/03/29 08:10:28;;;;;;;30.95;23.42;;;;;;;8.89;57.50;99358.53;5093233;28;20107;-70
2022/03/29 08:12:57;;;;;;;33.70;25.73;;;;;;;9.01;57.04;99354.91;5093993;28;20044;-71
2022/03/29 08:15:24;;;;;;;35.80;25.10;;;;;;;9.07;57.05;99351.78;5092603;28;20055;-71
2022/03/29 08:17:51;;;;;;;65.93;36.45;;;;;;;9.13;56.70;99361.00;5094414;28;20092;-71
2022/03/29 08:20:19;;;;;;;40.80;25.00;;;;;;;9.30;56.38;99355.19;5091445;28;20141;-74
2022/03/29 08:22:47;;;;;;;38.78;27.42;;;;;;;9.42;55.94;99352.50;5092484;28;20072;-72
2022/03/29 08:25:15;;;;;;;34.97;24.50;;;;;;;9.57;55.59;99344.16;5087005;28;20079;-72
2022/03/29 08:27:42;;;;;;;31.00;22.02;;;;;;;9.61;55.29;99344.75;5089488;28;20076;-73
2022/03/29 08:30:10;;;;;;;34.03;23.33;;;;;;;9.52;55.27;99358.69;5091471;28;20040;-71
2022/03/29 08:32:38;;;;;;;32.95;24.13;;;;;;;9.51;55.35;99354.41;5091660;28;20829;-73
2022/03/29 08:35:06;;;;;;;36.65;26.00;;;;;;;9.47;55.34;99361.72;5088923;28;20123;-72
2022/03/29 08:37:35;;;;;;;33.33;24.48;;;;;;;9.47;55.43;99368.78;5086578;28;20044;-73
2022/03/29 08:40:04;;;;;;;32.42;20.02;;;;;;;9.72;54.97;99368.44;5075122;28;20051;-71
2022/03/29 08:42:31;;;;;;;32.40;23.08;;;;;;;9.90;54.53;99363.44;5081803;28;20044;-70
2022/03/29 08:44:59;;;;;;;29.08;20.52;;;;;;;10.14;53.93;99359.69;5082196;28;20242;-71
2022/03/29 08:47:27;;;;;;;30.52;23.15;;;;;;;10.08;53.82;99361.03;5080939;28;20123;-71
2022/03/29 08:49:54;;;;;;;37.13;24.35;;;;;;;10.25;53.60;99358.75;5080696;28;20090;-72
2022/03/29 08:52:21;;;;;;;37.30;23.98;;;;;;;10.33;53.16;99357.19;5080956;28;20047;-69
2022/03/29 08:54:49;;;;;;;36.47;21.40;;;;;;;10.42;53.02;99355.53;5080651;28;20626;-72
2022/03/29 08:57:18;;;;;;;33.50;20.83;;;;;;;10.83;52.54;99352.91;5080893;28;20625;-72
2022/03/29 08:59:45;;;;;;;46.95;28.63;;;;;;;10.99;51.82;99352.38;5081398;28;20043;-70
2022/03/29 09:02:13;;;;;;;38.97;23.73;;;;;;;11.19;51.45;99353.25;5080412;28;20050;-70
2022/03/29 09:04:40;;;;;;;40.85;24.85;;;;;;;11.35;50.89;99350.91;5081388;28;20105;-72
2022/03/29 09:07:07;;;;;;;36.40;23.90;;;;;;;11.05;51.06;99344.72;5080251;28;20059;-71
2022/03/29 09:09:36;;;;;;;34.33;22.85;;;;;;;10.92;51.56;99351.25;5078213;28;20052;-70
2022/03/29 09:12:15;;;;;;;34.55;26.38;;;;;;;11.12;50.68;99341.56;5081180;28;20044;-71
2022/03/29 09:14:56;;;;;;;32.10;18.25;;;;;;;11.29;50.45;99336.44;5079370;28;20103;-70
2022/03/29 09:17:28;;;;;;;29.83;19.60;;;;;;;11.34;49.70;99332.53;5080289;28;20076;-70
2022/03/29 09:19:56;;;;;;;33.72;20.42;;;;;;;11.89;49.05;99334.59;5077735;28;20738;-71
2022/03/29 09:22:37;;;;;;;30.92;22.42;;;;;;;11.92;48.49;99326.38;5080637;28;20048;-70
2022/03/29 09:25:06;;;;;;;25.55;18.67;;;;;;;11.98;47.95;99333.75;5080451;28;20162;-70
2022/03/29 09:27:49;;;;;;;29.58;19.30;;;;;;;12.14;47.92;99327.88;5079978;28;20048;-71
2022/03/29 09:30:17;;;;;;;24.02;19.08;;;;;;;12.29;46.92;99323.75;5079960;28;20423;-68
2022/03/29 09:32:56;;;;;;;25.70;19.30;;;;;;;11.99;47.38;99330.97;5079419;28;20579;-71
2022/03/29 09:35:24;;;;;;;31.25;16.20;;;;;;;12.23;47.55;99324.34;5078077;28;20499;-70
2022/03/29 09:37:51;;;;;;;33.08;17.73;;;;;;;12.59;46.36;99314.72;5081495;28;20068;-74
2022/03/29 09:40:19;;;;;;;29.70;18.45;;;;;;;12.79;46.26;99318.09;5080732;28;20653;-71
2022/03/29 09:43:10;;;;;;;22.05;14.63;;;;;;;13.07;46.01;99314.56;5081232;28;20048;-73
2022/03/29 09:45:44;;;;;;;28.73;16.17;;;;;;;12.69;44.70;99306.69;5063773;28;20062;-73
2022/03/29 09:48:28;;;;;;;18.02;13.95;;;;;;;12.71;45.05;99304.78;5072531;28;20568;-68
2022/03/29 09:50:58;;;;;;;28.23;19.65;;;;;;;12.56;45.07;99306.22;5079646;28;20116;-70
2022/03/29 09:53:39;;;;;;;22.45;14.35;;;;;;;12.71;45.35;99311.84;5086414;28;20052;-72
2022/03/29 09:56:07;;;;;;;26.63;14.35;;;;;;;12.98;44.84;99317.16;5079937;28;20047;-71
2022/03/29 09:58:34;;;;;;;28.83;18.55;;;;;;;13.13;43.83;99306.84;5088019;28;21425;-72
2022/03/29 10:01:04;;;;;;;22.77;16.50;;;;;;;13.20;44.15;99304.44;5080910;28;20044;-72
2022/03/29 10:03:34;;;;;;;25.23;14.90;;;;;;;13.69;43.59;99304.88;5082822;28;20119;-73
2022/03/29 10:06:05;;;;;;;24.23;14.38;;;;;;;13.83;43.19;99300.84;5082397;28;20051;-73
2022/03/29 10:11:19;;;;;;;19.42;12.13;;;;;;;13.69;43.36;99288.94;5097488;28;20263;-73
2022/03/29 10:13:47;;;;;;;21.80;13.98;;;;;;;13.54;43.36;99296.63;5098323;28;20871;-72
2022/03/29 10:16:16;;;;;;;19.05;13.25;;;;;;;13.51;43.56;99294.28;5104653;28;20077;-72
2022/03/29 10:18:45;;;;;;;23.52;17.48;;;;;;;13.33;42.83;99289.00;5088374;28;20048;-71
2022/03/29 10:21:15;;;;;;;26.70;17.13;;;;;;;12.62;43.23;99295.03;5086869;28;20117;-71
2022/03/29 10:23:45;;;;;;;22.27;13.88;;;;;;;12.48;44.20;99295.53;5087221;28;20051;-74
2022/03/29 10:26:17;;;;;;;23.00;16.85;;;;;;;12.32;44.22;99286.41;5089378;28;20387;-72
2022/03/29 10:28:46;;;;;;;22.42;13.52;;;;;;;12.08;44.97;99302.78;5090443;28;20051;-74
2022/03/29 10:31:36;;;;;;;26.45;15.35;;;;;;;11.89;45.20;99303.66;5089797;28;20494;-73
2022/03/29 10:34:16;;;;;;;27.33;13.60;;;;;;;11.71;45.38;99297.44;5085117;28;20087;-73
2022/03/29 10:37:07;;;;;;;21.70;14.93;;;;;;;11.71;45.49;99289.50;5088257;28;20083;-77
2022/03/29 10:39:42;;;;;;;26.42;16.00;;;;;;;12.09;45.14;99293.88;5088134;28;20048;-72
2022/03/29 10:42:27;;;;;;;22.45;16.95;;;;;;;11.87;44.87;99292.38;5087308;28;20670;-74
2022/03/29 10:45:03;;;;;;;19.40;13.63;;;;;;;11.65;45.49;99293.56;5086832;28;20135;-76
2022/03/29 10:47:32;;;;;;;100.75;34.63;;;;;;;11.67;45.62;99297.72;5087618;28;20648;-73
2022/03/29 10:49:59;;;;;;;24.50;16.25;;;;;;;11.81;45.39;99291.16;5087246;28;20140;-73
2022/03/29 10:52:37;;;;;;;22.13;18.17;;;;;;;11.65;45.83;99283.81;5086255;28;20046;-75
2022/03/29 10:55:27;;;;;;;31.38;15.32;;;;;;;11.56;46.08;99282.00;5085348;28;20127;-74
2022/03/29 10:58:06;;;;;;;22.05;15.60;;;;;;;11.71;45.93;99287.69;5083859;28;20043;-73
2022/03/29 11:04:00;;;;;;;21.50;13.02;;;;;;;12.25;45.00;99266.78;5086825;28;20062;-76
2022/03/29 11:06:27;;;;;;;22.38;15.93;;;;;;;12.54;44.25;99252.56;5080993;28;20184;-76
2022/03/29 11:09:04;;;;;;;24.35;18.48;;;;;;;12.32;44.36;99259.94;5085689;28;20301;-76
2022/03/29 11:11:40;;;;;;;22.55;16.23;;;;;;;12.17;44.63;99261.38;5091124;28;20154;-76
2022/03/29 11:14:34;;;;;;;;;;;;;;;12.47;44.06;99264.75;5093035;28;20316;-73
2022/03/29 11:17:41;;;;;;;24.00;15.57;;;;;;;12.29;44.42;99246.16;5092354;28;19927;-76
2022/03/29 11:20:38;;;;;;;32.65;17.63;;;;;;;12.10;44.66;99255.00;5072118;28;20044;-73
2022/03/29 11:23:08;;;;;;;27.90;18.88;;;;;;;12.04;44.82;99249.31;5090573;28;20055;-78
2022/03/29 11:25:40;;;;;;;25.77;19.17;;;;;;;11.78;44.70;99258.84;5090299;28;20651;-75
2022/03/29 11:28:08;;;;;;;27.52;17.15;;;;;;;11.59;45.41;99249.97;5090317;28;20051;-77
2022/03/29 11:30:35;;;;;;;29.33;20.25;;;;;;;11.41;45.73;99247.22;5086668;28;20123;-75
2022/03/29 11:33:04;;;;;;;25.50;16.58;;;;;;;11.32;45.97;99244.59;5094945;28;20267;-74
2022/03/29 11:35:37;;;;;;;28.05;18.20;;;;;;;11.25;45.98;99239.03;5096336;28;20047;-74
2022/03/29 11:38:09;;;;;;;27.92;19.50;;;;;;;11.22;46.12;99231.41;5095285;28;20078;-73
2022/03/29 11:40:37;;;;;;;39.38;21.83;;;;;;;11.30;46.16;99247.38;5091956;28;20040;-75
2022/03/29 11:43:10;;;;;;;40.75;16.83;;;;;;;11.45;45.78;99231.91;5091905;28;20061;-77
2022/03/29 11:45:40;;;;;;;26.55;17.60;;;;;;;11.64;45.49;99236.34;5091581;28;20523;-75
2022/03/29 11:48:12;;;;;;;24.92;16.35;;;;;;;11.58;45.63;99224.53;5091388;28;20052;-74